createdAt,value
2019-05-02T00:00:22.433Z,52.47
2019-05-02T00:02:52.134Z,47.10
2019-05-02T00:05:22.222Z,56.53
2019-05-02T00:07:53.877Z,51.53
2019-05-02T00:10:24.852Z,55.97
2019-05-02T00:12:54.868Z,58.60
2019-05-02T00:15:25.264Z,53.47
2019-05-02T00:17:56.767Z,51.50
2019-05-02T00:20:27.145Z,53.37
2019-05-02T00:22:56.757Z,57.53
2019-05-02T00:25:26.185Z,52.30
2019-05-02T00:27:55.652Z,52.30
2019-05-02T00:30:25.231Z,53.50
2019-05-02T00:32:58.185Z,56.37
2019-05-02T00:35:25.861Z,58.53
2019-05-02T00:37:57.414Z,56.70
2019-05-02T00:40:27.799Z,55.47
2019-05-02T00:42:58.184Z,57.33
2019-05-02T00:45:28.438Z,54.47
2019-05-02T00:48:00.589Z,55.40
2019-05-02T00:50:31.702Z,55.53
2019-05-02T00:53:01.149Z,56.67
2019-05-02T00:55:33.871Z,60.00
2019-05-02T00:58:01.685Z,57.20
2019-05-02T01:00:32.794Z,52.43
2019-05-02T01:03:03.209Z,56.93
2019-05-02T01:05:33.917Z,59.87
2019-05-02T01:08:03.876Z,59.10
2019-05-02T01:10:33.339Z,54.30
2019-05-02T01:13:02.861Z,61.80
2019-05-02T01:15:32.324Z,54.73
2019-05-02T01:18:06.040Z,57.17
2019-05-02T01:20:32.866Z,55.13
2019-05-02T01:23:02.305Z,63.30
2019-05-02T01:25:32.844Z,60.87
2019-05-02T01:28:12.513Z,54.90
2019-05-02T01:30:43.842Z,57.43
2019-05-02T01:33:32.082Z,59.73
2019-05-02T01:36:07.999Z,63.53
2019-05-02T01:38:38.568Z,57.77
2019-05-02T01:41:08.032Z,61.73
2019-05-02T01:43:37.474Z,60.40
2019-05-02T01:46:07.009Z,66.60
2019-05-02T01:48:40.231Z,60.30
2019-05-02T01:51:10.077Z,61.67
2019-05-02T01:53:39.737Z,60.23
2019-05-02T01:56:09.205Z,61.63
2019-05-02T01:58:38.644Z,61.87
2019-05-02T02:01:08.177Z,60.83
2019-05-02T02:03:40.652Z,62.63
2019-05-02T02:06:10.152Z,60.10
2019-05-02T02:08:40.833Z,55.83
2019-05-02T02:11:10.311Z,53.63
2019-05-02T02:13:39.753Z,54.43
2019-05-02T02:16:09.223Z,56.03
2019-05-02T02:18:40.314Z,51.53
2019-05-02T02:21:25.779Z,50.90
2019-05-02T02:23:58.842Z,50.37
2019-05-02T02:26:28.300Z,52.63
2019-05-02T02:28:57.747Z,53.30
2019-05-02T02:31:27.210Z,50.43
2019-05-02T02:33:56.661Z,49.10
2019-05-02T02:36:31.267Z,53.40
2019-05-02T02:38:57.183Z,55.50
2019-05-02T02:41:26.654Z,51.40
2019-05-02T02:44:03.469Z,55.00
2019-05-02T02:46:37.731Z,54.07
2019-05-02T02:49:06.861Z,50.33
2019-05-02T02:51:36.326Z,53.50
2019-05-02T02:54:06.064Z,53.47
2019-05-02T02:56:40.470Z,50.97
2019-05-02T02:59:06.755Z,49.10
2019-05-02T03:01:36.218Z,46.80
2019-05-02T03:04:09.565Z,52.37
2019-05-02T03:06:38.649Z,46.97
2019-05-02T03:09:08.039Z,48.63
2019-05-02T03:11:39.141Z,49.33
2019-05-02T03:14:10.234Z,43.97
2019-05-02T03:16:47.096Z,46.40
2019-05-02T03:19:14.763Z,44.80
2019-05-02T03:22:01.049Z,46.47
2019-05-02T03:24:26.481Z,44.83
2019-05-02T03:26:58.433Z,43.97
2019-05-02T03:29:39.275Z,41.73
2019-05-02T03:32:25.933Z,41.37
2019-05-02T03:34:44.919Z,44.23
2019-05-02T03:37:03.281Z,48.83
2019-05-02T03:39:31.662Z,44.70
2019-05-02T03:42:02.803Z,43.30
2019-05-02T03:44:32.379Z,46.73
2019-05-02T03:47:04.629Z,45.23
2019-05-02T03:49:33.247Z,44.97
2019-05-02T03:52:05.716Z,48.10
2019-05-02T03:54:33.978Z,49.40
2019-05-02T03:57:03.517Z,49.47
2019-05-02T03:59:39.146Z,50.73
2019-05-02T04:02:04.198Z,52.37
2019-05-02T04:04:34.695Z,43.30
2019-05-02T04:07:04.218Z,47.97
2019-05-02T04:09:42.041Z,43.80
2019-05-02T04:12:11.765Z,48.00
2019-05-02T04:14:39.405Z,47.40
2019-05-02T04:17:10.838Z,47.43
2019-05-02T04:19:41.199Z,52.07
2019-05-02T04:22:12.101Z,50.33
2019-05-02T04:24:47.825Z,51.80
2019-05-02T04:27:13.557Z,53.93
2019-05-02T04:29:42.996Z,52.83
2019-05-02T04:32:14.574Z,57.60
2019-05-02T04:34:48.940Z,56.93
2019-05-02T04:37:14.758Z,54.27
2019-05-02T04:39:44.202Z,54.77
2019-05-02T04:42:21.909Z,61.80
2019-05-02T04:45:08.835Z,62.53
2019-05-02T04:47:18.658Z,58.93
2019-05-02T04:49:51.357Z,63.87
2019-05-02T04:52:21.030Z,63.03
2019-05-02T04:54:49.042Z,63.90
2019-05-02T04:57:19.483Z,63.17
2019-05-02T04:59:50.631Z,63.87
2019-05-02T05:02:29.298Z,60.63
2019-05-02T05:04:51.101Z,61.80
2019-05-02T05:07:20.568Z,62.83
2019-05-02T05:09:58.073Z,65.73
2019-05-02T05:12:21.098Z,67.47
2019-05-02T05:14:50.537Z,69.10
2019-05-02T05:17:20.151Z,64.60
2019-05-02T05:19:49.546Z,65.17
2019-05-02T05:22:19.013Z,66.23
2019-05-02T05:24:50.102Z,63.23
2019-05-02T05:27:22.832Z,63.10
2019-05-02T05:29:53.631Z,67.00
2019-05-02T05:32:23.877Z,68.67
2019-05-02T05:34:53.322Z,67.73
2019-05-02T05:37:22.785Z,63.47
2019-05-02T05:39:52.623Z,57.53
2019-05-02T05:42:23.276Z,60.27
2019-05-02T05:44:53.266Z,60.63
2019-05-02T05:47:22.738Z,61.17
2019-05-02T05:49:56.713Z,65.67
2019-05-02T05:52:23.261Z,66.20
2019-05-02T05:54:52.701Z,60.97
2019-05-02T05:57:22.178Z,64.30
2019-05-02T05:59:51.617Z,64.33
2019-05-02T06:02:21.077Z,61.80
2019-05-02T06:04:55.318Z,60.33
2019-05-02T06:07:21.621Z,58.93
2019-05-02T06:09:51.066Z,56.33
2019-05-02T06:12:20.540Z,58.77
2019-05-02T06:14:49.978Z,63.63
2019-05-02T06:17:23.086Z,59.30
2019-05-02T06:19:53.482Z,58.77
2019-05-02T06:22:24.322Z,58.43
2019-05-02T06:24:52.663Z,61.00
2019-05-02T06:27:26.011Z,59.83
2019-05-02T06:29:56.101Z,60.43
2019-05-02T06:32:24.277Z,60.33
2019-05-02T06:34:53.721Z,63.07
2019-05-02T06:37:23.195Z,61.80
2019-05-02T06:39:52.906Z,59.33
2019-05-02T06:42:22.372Z,54.40
2019-05-02T06:44:54.898Z,57.37
2019-05-02T06:47:22.908Z,56.03
2019-05-02T06:49:56.095Z,59.87
2019-05-02T06:52:27.161Z,59.10
2019-05-02T06:54:57.981Z,57.57
2019-05-02T06:57:25.874Z,56.57
2019-05-02T06:59:56.473Z,54.87
2019-05-02T07:02:28.213Z,63.30
2019-05-02T07:04:58.194Z,56.67
2019-05-02T07:07:31.380Z,52.03
2019-05-02T07:09:58.741Z,55.77
2019-05-02T07:12:28.465Z,56.80
2019-05-02T07:15:01.555Z,54.07
2019-05-02T07:17:36.457Z,51.07
2019-05-02T07:20:07.272Z,61.17
2019-05-02T07:22:38.818Z,56.73
2019-05-02T07:25:09.033Z,60.80
2019-05-02T07:27:39.500Z,55.60
2019-05-02T07:30:11.165Z,58.07
2019-05-02T07:32:40.609Z,56.47
2019-05-02T07:35:10.215Z,55.77
2019-05-02T07:37:43.929Z,60.87
2019-05-02T07:40:12.006Z,51.33
2019-05-02T07:42:43.190Z,47.43
2019-05-02T07:45:13.390Z,51.57
2019-05-02T07:47:42.832Z,58.67
2019-05-02T07:50:13.433Z,57.40
2019-05-02T07:52:42.885Z,52.47
2019-05-02T07:55:12.418Z,54.50
2019-05-02T07:57:41.861Z,57.50
2019-05-02T08:00:13.638Z,46.93
2019-05-02T08:02:43.167Z,55.37
2019-05-02T08:05:15.448Z,52.60
2019-05-02T08:07:44.413Z,51.93
2019-05-02T08:10:21.228Z,59.67
2019-05-02T08:12:47.329Z,55.17
2019-05-02T08:15:16.977Z,57.83
2019-05-02T08:17:53.227Z,57.53
2019-05-02T08:20:19.288Z,66.77
2019-05-02T08:22:50.201Z,53.83
2019-05-02T08:25:20.081Z,55.10
2019-05-02T08:27:51.229Z,59.73
2019-05-02T08:30:22.589Z,55.80
2019-05-02T08:32:52.109Z,60.73
2019-05-02T08:35:21.577Z,52.30
2019-05-02T08:37:51.029Z,55.97
2019-05-02T08:40:20.500Z,52.97
2019-05-02T08:42:50.021Z,54.10
2019-05-02T08:45:19.489Z,50.00
2019-05-02T08:47:49.008Z,51.13
2019-05-02T08:50:18.631Z,50.47
2019-05-02T08:52:48.262Z,46.70
2019-05-02T08:55:17.773Z,51.37
2019-05-02T08:57:47.231Z,54.43
2019-05-02T09:00:17.045Z,50.53
2019-05-02T09:02:46.494Z,47.10
2019-05-02T09:05:16.497Z,44.20
2019-05-02T09:07:45.949Z,41.47
2019-05-02T09:10:15.560Z,44.17
2019-05-02T09:12:45.579Z,44.43
2019-05-02T09:15:15.321Z,44.23
2019-05-02T09:17:51.681Z,43.33
2019-05-02T09:20:20.851Z,42.77
2019-05-02T09:22:54.101Z,48.27
2019-05-02T09:25:21.820Z,45.80
2019-05-02T09:27:52.483Z,46.57
2019-05-02T09:30:25.542Z,48.57
2019-05-02T09:32:57.246Z,44.83
2019-05-02T09:35:24.185Z,46.07
2019-05-02T09:37:53.646Z,42.30
2019-05-02T09:40:23.185Z,43.60
2019-05-02T09:42:57.631Z,40.57
2019-05-02T09:45:27.735Z,42.10
2019-05-02T09:48:04.581Z,43.27
2019-05-02T09:50:31.363Z,44.67
2019-05-02T09:52:58.767Z,43.47
2019-05-02T09:55:28.238Z,48.23
2019-05-02T09:57:57.694Z,45.83
2019-05-02T10:00:32.283Z,45.53
2019-05-02T10:03:02.704Z,43.97
2019-05-02T10:05:32.328Z,43.77
2019-05-02T10:08:03.216Z,41.87
2019-05-02T10:10:37.239Z,41.97
2019-05-02T10:13:06.010Z,43.90
2019-05-02T10:15:35.598Z,47.23
2019-05-02T10:18:10.644Z,48.67
2019-05-02T10:20:36.690Z,50.03
2019-05-02T10:23:06.314Z,49.97
2019-05-02T10:25:41.218Z,50.30
2019-05-02T10:28:09.974Z,59.60
2019-05-02T10:30:38.602Z,53.57
2019-05-02T10:33:08.069Z,51.07
2019-05-02T10:35:40.862Z,50.43
2019-05-02T10:38:17.979Z,48.53
2019-05-02T10:40:42.449Z,53.47
2019-05-02T10:43:12.068Z,51.27
2019-05-02T10:45:47.350Z,47.30
2019-05-02T10:48:25.214Z,48.97
2019-05-02T10:50:47.259Z,46.37
2019-05-02T10:53:16.772Z,50.37
2019-05-02T10:55:46.242Z,45.90
2019-05-02T10:58:15.789Z,47.73
2019-05-02T11:00:45.841Z,46.93
2019-05-02T11:03:22.807Z,47.53
2019-05-02T11:05:57.924Z,50.83
2019-05-02T11:08:27.030Z,48.70
2019-05-02T11:10:56.502Z,49.43
2019-05-02T11:13:32.170Z,47.07
2019-05-02T11:16:21.561Z,46.13
2019-05-02T11:18:52.678Z,52.23
2019-05-02T11:21:22.948Z,49.27
2019-05-02T11:23:52.736Z,47.27
2019-05-02T11:26:25.131Z,45.97
2019-05-02T11:28:53.545Z,49.70
2019-05-02T11:31:23.253Z,51.57
2019-05-02T11:33:52.924Z,51.30
2019-05-02T11:36:22.686Z,49.73
2019-05-02T11:38:57.279Z,52.07
2019-05-02T11:41:23.301Z,49.17
2019-05-02T11:43:55.766Z,51.47
2019-05-02T11:46:23.853Z,49.53
2019-05-02T11:48:58.337Z,43.20
2019-05-02T11:51:24.409Z,45.23
2019-05-02T11:53:53.854Z,47.73
2019-05-02T11:56:23.329Z,48.17
2019-05-02T11:58:52.986Z,45.95
2019-05-02T12:01:35.773Z,49.55
2019-05-02T12:03:53.705Z,49.10
2019-05-02T12:06:23.188Z,44.13
2019-05-02T12:08:52.881Z,41.77
2019-05-02T12:11:23.530Z,47.83
2019-05-02T12:13:56.976Z,38.43
2019-05-02T12:16:24.145Z,40.67
2019-05-02T12:18:57.996Z,43.40
2019-05-02T12:21:24.769Z,45.50
2019-05-02T12:23:54.208Z,43.92
2019-05-02T12:26:23.678Z,37.73
2019-05-02T12:28:53.134Z,42.80
2019-05-02T12:31:32.396Z,40.20
2019-05-02T12:34:03.214Z,36.60
2019-05-02T12:36:33.288Z,40.47
2019-05-02T12:39:03.711Z,42.17
2019-05-02T12:41:33.476Z,33.63
2019-05-02T12:44:02.917Z,34.77
2019-05-02T12:46:32.397Z,41.10
2019-05-02T12:49:02.800Z,41.27
2019-05-02T12:51:32.492Z,37.45
2019-05-02T12:54:02.445Z,35.03
2019-05-02T12:56:32.531Z,37.60
2019-05-02T12:59:02.542Z,42.53
2019-05-02T13:01:32.990Z,34.83
2019-05-02T13:04:05.430Z,39.20
2019-05-02T13:06:37.793Z,37.63
2019-05-02T13:09:09.574Z,39.13
2019-05-02T13:11:52.151Z,40.53
2019-05-02T13:14:22.809Z,40.73
2019-05-02T13:16:53.603Z,35.47
2019-05-02T13:19:36.505Z,41.23
2019-05-02T13:21:59.823Z,37.57
2019-05-02T13:24:35.258Z,36.93
2019-05-02T13:27:07.078Z,39.33
2019-05-02T13:29:36.698Z,41.20
2019-05-02T13:32:24.224Z,38.50
2019-05-02T13:34:57.184Z,43.10
2019-05-02T13:37:27.144Z,40.77
2019-05-02T13:40:02.572Z,40.00
2019-05-02T13:42:33.829Z,39.93
2019-05-02T13:45:05.781Z,35.83
2019-05-02T13:47:35.321Z,39.83
2019-05-02T13:50:06.886Z,38.60
2019-05-02T13:52:36.364Z,39.93
2019-05-02T13:55:11.706Z,39.10
2019-05-02T13:57:42.993Z,41.40
2019-05-02T14:00:13.867Z,42.43
2019-05-02T14:02:43.873Z,41.47
2019-05-02T14:05:16.559Z,38.00
2019-05-02T14:07:57.088Z,37.73
2019-05-02T14:10:32.155Z,43.80
2019-05-02T14:13:03.192Z,46.13
2019-05-02T14:15:36.081Z,42.40
2019-05-02T14:18:05.692Z,40.57
2019-05-02T14:20:37.411Z,50.67
2019-05-02T14:23:06.437Z,53.17
2019-05-02T14:25:35.893Z,62.67
2019-05-02T14:28:05.432Z,64.27
2019-05-02T14:30:39.870Z,62.37
2019-05-02T14:33:07.914Z,65.23
2019-05-02T14:35:37.940Z,70.27
2019-05-02T14:38:13.162Z,69.83
2019-05-02T14:40:46.429Z,65.60
2019-05-02T14:43:17.545Z,70.57
2019-05-02T14:45:52.840Z,72.33
2019-05-02T14:48:22.109Z,68.53
2019-05-02T14:50:52.259Z,77.83
2019-05-02T14:53:25.339Z,71.73
2019-05-02T14:55:57.516Z,79.57
2019-05-02T14:58:25.282Z,70.47
2019-05-02T15:00:55.971Z,64.13
2019-05-02T15:03:28.445Z,59.43
2019-05-02T15:05:59.000Z,63.83
2019-05-02T15:08:27.608Z,70.40
2019-05-02T15:10:57.064Z,61.90
2019-05-02T15:13:26.544Z,71.10
2019-05-02T15:15:56.970Z,67.63
2019-05-02T15:18:27.305Z,72.77
2019-05-02T15:20:56.754Z,73.60
2019-05-02T15:23:26.225Z,74.30
2019-05-02T15:25:56.159Z,68.63
2019-05-02T15:28:29.772Z,75.60
2019-05-02T15:31:04.736Z,77.27
2019-05-02T15:33:32.990Z,70.27
2019-05-02T15:36:07.516Z,72.83
2019-05-02T15:38:37.259Z,73.10
2019-05-02T15:41:09.530Z,77.97
2019-05-02T15:43:39.239Z,79.20
2019-05-02T15:46:08.875Z,77.77
2019-05-02T15:48:38.324Z,83.10
2019-05-02T15:51:09.093Z,84.03
2019-05-02T15:54:02.025Z,88.43
2019-05-02T15:56:22.197Z,81.43
2019-05-02T15:58:52.151Z,89.87
2019-05-02T16:01:41.627Z,80.70
2019-05-02T16:04:12.734Z,82.03
2019-05-02T16:06:42.262Z,74.27
2019-05-02T16:09:11.975Z,81.23
2019-05-02T16:11:43.320Z,71.60
2019-05-02T16:14:12.886Z,73.03
2019-05-02T16:16:45.185Z,78.83
2019-05-02T16:19:16.563Z,70.27
2019-05-02T16:21:46.353Z,75.23
2019-05-02T16:24:23.493Z,66.67
2019-05-02T16:26:56.974Z,72.60
2019-05-02T16:29:28.374Z,71.67
2019-05-02T16:31:59.791Z,68.00
2019-05-02T16:34:32.444Z,66.77
2019-05-02T16:37:16.765Z,80.50
2019-05-02T16:39:49.476Z,74.80
2019-05-02T16:42:15.785Z,77.87
2019-05-02T16:44:45.324Z,82.40
2019-05-02T16:47:14.773Z,88.77
2019-05-02T16:49:47.977Z,85.77
2019-05-02T16:52:16.164Z,89.77
2019-05-02T16:54:45.799Z,86.00
2019-05-02T16:57:17.343Z,90.77
2019-05-02T16:59:46.333Z,93.70
2019-05-02T17:02:15.781Z,97.70
2019-05-02T17:04:45.256Z,94.53
2019-05-02T17:07:16.748Z,94.73
2019-05-02T17:09:56.876Z,88.53
2019-05-02T17:12:26.326Z,94.33
2019-05-02T17:15:14.095Z,93.07
2019-05-02T17:17:44.617Z,84.97
2019-05-02T17:20:16.644Z,86.63
2019-05-02T17:22:50.029Z,79.50
2019-05-02T17:25:16.605Z,89.57
2019-05-02T17:27:46.080Z,84.17
2019-05-02T17:30:16.844Z,91.80
2019-05-02T17:32:46.362Z,78.50
2019-05-02T17:35:16.168Z,82.03
2019-05-02T17:37:48.826Z,81.20
2019-05-02T17:40:21.749Z,80.97
2019-05-02T17:42:48.088Z,77.07
2019-05-02T17:45:17.697Z,78.10
2019-05-02T17:47:48.125Z,83.73
2019-05-02T17:50:23.693Z,85.27
2019-05-02T17:53:01.073Z,77.17
2019-05-02T17:55:32.735Z,74.67
2019-05-02T17:58:04.617Z,80.77
2019-05-02T18:00:33.516Z,85.00
2019-05-02T18:03:02.904Z,78.53
2019-05-02T18:05:35.674Z,83.77
2019-05-02T18:08:06.018Z,78.30
2019-05-02T18:10:35.286Z,81.63
2019-05-02T18:13:05.486Z,79.20
2019-05-02T18:15:36.245Z,79.93
2019-05-02T18:18:06.752Z,65.77
2019-05-02T18:20:41.557Z,76.33
2019-05-02T18:23:08.038Z,72.23
2019-05-02T18:25:37.505Z,75.97
2019-05-02T18:28:07.026Z,73.03
2019-05-02T18:30:36.565Z,67.40
2019-05-02T18:33:07.354Z,71.30
2019-05-02T18:35:41.954Z,68.40
2019-05-02T18:38:09.081Z,71.20
2019-05-02T18:40:38.578Z,64.63
2019-05-02T18:43:08.029Z,69.47
2019-05-02T18:45:37.649Z,62.10
2019-05-02T18:48:07.204Z,66.53
2019-05-02T18:50:44.526Z,68.37
2019-05-02T18:53:11.081Z,63.47
2019-05-02T18:55:42.196Z,66.30
2019-05-02T18:58:12.867Z,69.27
2019-05-02T19:00:42.456Z,69.93
2019-05-02T19:03:16.813Z,61.33
2019-05-02T19:05:43.430Z,61.67
2019-05-02T19:08:12.909Z,64.23
2019-05-02T19:10:55.833Z,65.03
2019-05-02T19:13:13.591Z,55.83
2019-05-02T19:15:45.173Z,56.33
2019-05-02T19:18:18.182Z,63.83
2019-05-02T19:20:57.487Z,61.33
2019-05-02T19:23:25.365Z,59.77
2019-05-02T19:25:54.877Z,57.23
2019-05-02T19:28:44.449Z,57.27
2019-05-02T19:31:13.885Z,52.53
2019-05-02T19:33:44.172Z,60.23
2019-05-02T19:36:16.322Z,56.57
2019-05-02T19:38:44.857Z,49.37
2019-05-02T19:41:14.313Z,51.30
2019-05-02T19:43:49.381Z,52.63
2019-05-02T19:46:16.901Z,56.23
2019-05-02T19:48:45.951Z,51.87
2019-05-02T19:51:18.692Z,53.50
2019-05-02T19:53:46.497Z,47.00
2019-05-02T19:56:15.949Z,49.47
2019-05-02T19:58:46.765Z,44.00
2019-05-02T20:01:17.501Z,49.70
2019-05-02T20:03:47.533Z,44.00
2019-05-02T20:06:17.412Z,44.27
2019-05-02T20:08:46.889Z,44.23
2019-05-02T20:11:16.345Z,47.10
2019-05-02T20:13:45.813Z,52.83
2019-05-02T20:16:22.542Z,45.13
2019-05-02T20:18:52.489Z,43.27
2019-05-02T20:21:27.594Z,43.10
2019-05-02T20:23:54.841Z,42.93
2019-05-02T20:26:24.295Z,46.63
2019-05-02T20:28:53.772Z,45.13
2019-05-02T20:31:23.226Z,42.13
2019-05-02T20:33:52.769Z,48.33
2019-05-02T20:36:22.782Z,50.97
2019-05-02T20:38:52.634Z,42.57
2019-05-02T20:41:23.168Z,48.77
2019-05-02T20:43:52.638Z,30.33
2019-05-02T20:46:22.096Z,22.00
2019-05-02T20:48:52.593Z,20.13
2019-05-02T20:51:22.799Z,22.77
2019-05-02T20:53:52.762Z,16.80
2019-05-02T20:56:23.282Z,12.60
2019-05-02T20:58:52.851Z,12.13
2019-05-02T21:01:22.260Z,16.40
2019-05-02T21:03:52.219Z,10.57
2019-05-02T21:06:37.605Z,16.27
2019-05-02T21:08:58.857Z,12.47
2019-05-02T21:11:28.834Z,10.07
2019-05-02T21:13:58.361Z,14.40
2019-05-02T21:16:27.805Z,11.57
2019-05-02T21:18:57.343Z,11.77
2019-05-02T21:21:28.021Z,13.70
2019-05-02T21:23:57.483Z,17.97
2019-05-02T21:26:27.151Z,10.97
2019-05-02T21:28:56.615Z,18.00
2019-05-02T21:31:27.025Z,13.03
2019-05-02T21:33:56.494Z,15.90
2019-05-02T21:36:25.938Z,12.63
2019-05-02T21:38:55.401Z,14.87
2019-05-02T21:41:24.985Z,12.23
2019-05-02T21:43:54.446Z,14.33
2019-05-02T21:46:23.881Z,13.97
2019-05-02T21:48:53.341Z,13.23
2019-05-02T21:51:26.869Z,13.03
2019-05-02T21:53:58.553Z,14.83
2019-05-02T21:56:29.649Z,13.20
2019-05-02T21:59:06.977Z,14.37
2019-05-02T22:01:43.914Z,14.37
2019-05-02T22:04:13.450Z,12.97
2019-05-02T22:06:42.957Z,11.33
2019-05-02T22:09:12.753Z,18.30
2019-05-02T22:11:43.007Z,14.30
2019-05-02T22:14:13.696Z,15.60
2019-05-02T22:16:43.286Z,10.43
2019-05-02T22:19:12.758Z,11.10
2019-05-02T22:21:43.061Z,8.87
2019-05-02T22:24:14.446Z,9.73
2019-05-02T22:26:44.773Z,9.27
2019-05-02T22:29:14.246Z,16.97
2019-05-02T22:31:43.685Z,7.50
2019-05-02T22:34:13.146Z,11.07
2019-05-02T22:36:43.550Z,12.47
2019-05-02T22:39:31.693Z,11.40
2019-05-02T22:42:04.220Z,8.93
2019-05-02T22:44:32.565Z,8.13
2019-05-02T22:47:02.136Z,8.37
2019-05-02T22:49:31.947Z,9.23
2019-05-02T22:52:01.589Z,8.63
2019-05-02T22:54:33.717Z,8.73
2019-05-02T22:57:02.564Z,8.30
2019-05-02T22:59:32.267Z,11.00
2019-05-02T23:02:02.680Z,17.30
2019-05-02T23:04:32.673Z,11.77
2019-05-02T23:07:02.474Z,11.50
2019-05-02T23:09:32.988Z,10.80
2019-05-02T23:12:02.983Z,14.83
2019-05-02T23:14:32.684Z,10.27
2019-05-02T23:17:03.235Z,11.53
2019-05-02T23:19:32.686Z,12.97
2019-05-02T23:22:02.266Z,13.93
2019-05-02T23:24:48.317Z,15.07
2019-05-02T23:27:34.669Z,14.43
2019-05-02T23:30:07.009Z,10.67
2019-05-02T23:32:36.444Z,21.57
2019-05-02T23:35:07.546Z,12.23
2019-05-02T23:37:37.083Z,12.77
2019-05-02T23:40:06.698Z,20.67
2019-05-02T23:42:36.130Z,18.60
2019-05-02T23:45:06.933Z,18.33
2019-05-02T23:47:36.372Z,22.87
2019-05-02T23:50:06.373Z,13.87
2019-05-02T23:52:36.787Z,17.27
2019-05-02T23:55:08.289Z,17.33
2019-05-02T23:57:37.731Z,15.03
